sensor_id;sensor_type;location;lat;lon;timestamp;P1;durP1;ratioP1;P2;durP2;ratioP2
60257;SDS011;46115;44.484;11.314;2022-08-01T00:00:17;3.20;;;2.20;;
60257;SDS011;46115;44.484;11.314;2022-08-01T00:04:20;5.43;;;2.15;;
60257;SDS011;46115;44.484;11.314;2022-08-01T00:08:22;2.70;;;1.80;;
60257;SDS011;46115;44.484;11.314;2022-08-01T00:12:25;3.78;;;2.10;;
60257;SDS011;46115;44.484;11.314;2022-08-01T00:16:29;3.15;;;2.08;;
60257;SDS011;46115;44.484;11.314;2022-08-01T00:20:32;4.07;;;2.13;;
60257;SDS011;46115;44.484;11.314;2022-08-01T00:24:34;2.83;;;2.10;;
60257;SDS011;46115;44.484;11.314;2022-08-01T00:28:36;3.80;;;2.28;;
60257;SDS011;46115;44.484;11.314;2022-08-01T00:32:40;2.45;;;2.10;;
60257;SDS011;46115;44.484;11.314;2022-08-01T00:36:43;3.15;;;2.10;;
60257;SDS011;46115;44.484;11.314;2022-08-01T00:40:47;3.42;;;2.17;;
60257;SDS011;46115;44.484;11.314;2022-08-01T00:44:50;2.25;;;2.05;;
60257;SDS011;46115;44.484;11.314;2022-08-01T00:48:53;4.25;;;2.20;;
60257;SDS011;46115;44.484;11.314;2022-08-01T00:52:56;3.35;;;2.25;;
60257;SDS011;46115;44.484;11.314;2022-08-01T00:57:00;3.17;;;2.00;;
60257;SDS011;46115;44.484;11.314;2022-08-01T01:01:02;3.28;;;2.33;;
60257;SDS011;46115;44.484;11.314;2022-08-01T01:05:07;3.05;;;2.10;;
60257;SDS011;46115;44.484;11.314;2022-08-01T01:13:35;3.25;;;2.30;;
60257;SDS011;46115;44.484;11.314;2022-08-01T01:17:44;3.13;;;2.28;;
60257;SDS011;46115;44.484;11.314;2022-08-01T01:21:56;2.63;;;2.17;;
60257;SDS011;46115;44.484;11.314;2022-08-01T01:26:13;2.70;;;2.00;;
60257;SDS011;46115;44.484;11.314;2022-08-01T01:30:25;4.05;;;2.00;;
60257;SDS011;46115;44.484;11.314;2022-08-01T01:34:31;4.28;;;2.25;;
60257;SDS011;46115;44.484;11.314;2022-08-01T01:38:39;2.53;;;2.10;;
60257;SDS011;46115;44.484;11.314;2022-08-01T01:42:44;3.50;;;2.20;;
60257;SDS011;46115;44.484;11.314;2022-08-01T01:46:49;5.05;;;2.00;;
60257;SDS011;46115;44.484;11.314;2022-08-01T01:50:54;3.15;;;2.20;;
60257;SDS011;46115;44.484;11.314;2022-08-01T01:54:59;3.42;;;2.17;;
60257;SDS011;46115;44.484;11.314;2022-08-01T01:59:03;3.10;;;2.13;;
60257;SDS011;46115;44.484;11.314;2022-08-01T02:03:07;3.20;;;2.20;;
60257;SDS011;46115;44.484;11.314;2022-08-01T02:07:12;4.88;;;2.35;;
60257;SDS011;46115;44.484;11.314;2022-08-01T02:11:19;5.70;;;1.92;;
60257;SDS011;46115;44.484;11.314;2022-08-01T02:15:23;3.08;;;2.28;;
60257;SDS011;46115;44.484;11.314;2022-08-01T02:19:28;3.05;;;2.20;;
60257;SDS011;46115;44.484;11.314;2022-08-01T02:23:31;2.92;;;2.00;;
60257;SDS011;46115;44.484;11.314;2022-08-01T02:27:37;2.78;;;2.13;;
60257;SDS011;46115;44.484;11.314;2022-08-01T02:31:43;2.65;;;2.10;;
60257;SDS011;46115;44.484;11.314;2022-08-01T02:35:51;4.35;;;2.10;;
60257;SDS011;46115;44.484;11.314;2022-08-01T02:39:58;4.25;;;1.90;;
60257;SDS011;46115;44.484;11.314;2022-08-01T02:44:03;2.50;;;1.88;;
60257;SDS011;46115;44.484;11.314;2022-08-01T02:48:09;3.05;;;2.10;;
60257;SDS011;46115;44.484;11.314;2022-08-01T02:52:16;2.80;;;1.90;;
60257;SDS011;46115;44.484;11.314;2022-08-01T02:56:20;2.20;;;2.00;;
60257;SDS011;46115;44.484;11.314;2022-08-01T03:00:24;6.32;;;2.30;;
60257;SDS011;46115;44.484;11.314;2022-08-01T03:04:31;3.88;;;2.03;;
60257;SDS011;46115;44.484;11.314;2022-08-01T03:08:37;2.60;;;2.13;;
60257;SDS011;46115;44.484;11.314;2022-08-01T03:12:40;4.50;;;2.20;;
60257;SDS011;46115;44.484;11.314;2022-08-01T03:16:44;4.15;;;2.10;;
60257;SDS011;46115;44.484;11.314;2022-08-01T03:20:49;2.47;;;1.80;;
60257;SDS011;46115;44.484;11.314;2022-08-01T03:24:55;2.53;;;2.17;;
60257;SDS011;46115;44.484;11.314;2022-08-01T03:29:02;3.92;;;2.00;;
60257;SDS011;46115;44.484;11.314;2022-08-01T03:33:08;3.55;;;2.03;;
60257;SDS011;46115;44.484;11.314;2022-08-01T03:37:12;2.70;;;2.10;;
60257;SDS011;46115;44.484;11.314;2022-08-01T03:41:22;3.60;;;2.13;;
60257;SDS011;46115;44.484;11.314;2022-08-01T03:45:29;2.47;;;2.00;;
60257;SDS011;46115;44.484;11.314;2022-08-01T03:49:37;3.15;;;1.85;;
60257;SDS011;46115;44.484;11.314;2022-08-01T03:53:44;4.63;;;2.28;;
60257;SDS011;46115;44.484;11.314;2022-08-01T03:57:50;2.67;;;2.17;;
60257;SDS011;46115;44.484;11.314;2022-08-01T04:01:54;3.60;;;2.10;;
60257;SDS011;46115;44.484;11.314;2022-08-01T04:05:58;2.58;;;2.00;;
60257;SDS011;46115;44.484;11.314;2022-08-01T04:10:01;2.72;;;2.20;;
60257;SDS011;46115;44.484;11.314;2022-08-01T04:14:05;2.65;;;1.92;;
60257;SDS011;46115;44.484;11.314;2022-08-01T04:18:07;2.95;;;2.00;;
60257;SDS011;46115;44.484;11.314;2022-08-01T04:22:10;3.50;;;2.13;;
60257;SDS011;46115;44.484;11.314;2022-08-01T04:26:15;2.92;;;2.10;;
60257;SDS011;46115;44.484;11.314;2022-08-01T04:30:20;2.72;;;1.98;;
60257;SDS011;46115;44.484;11.314;2022-08-01T04:34:26;3.28;;;1.90;;
60257;SDS011;46115;44.484;11.314;2022-08-01T04:38:33;2.80;;;2.05;;
60257;SDS011;46115;44.484;11.314;2022-08-01T04:42:37;2.85;;;2.10;;
60257;SDS011;46115;44.484;11.314;2022-08-01T04:46:42;2.70;;;2.00;;
60257;SDS011;46115;44.484;11.314;2022-08-01T04:50:46;4.03;;;2.00;;
60257;SDS011;46115;44.484;11.314;2022-08-01T04:54:48;3.30;;;1.95;;
60257;SDS011;46115;44.484;11.314;2022-08-01T04:58:51;2.25;;;1.95;;
60257;SDS011;46115;44.484;11.314;2022-08-01T05:03:15;3.40;;;2.17;;
60257;SDS011;46115;44.484;11.314;2022-08-01T05:07:17;3.88;;;2.00;;
60257;SDS011;46115;44.484;11.314;2022-08-01T05:11:20;3.25;;;1.80;;
60257;SDS011;46115;44.484;11.314;2022-08-01T05:15:22;3.88;;;1.95;;
60257;SDS011;46115;44.484;11.314;2022-08-01T05:19:27;3.80;;;1.85;;
60257;SDS011;46115;44.484;11.314;2022-08-01T05:23:30;2.53;;;1.80;;
60257;SDS011;46115;44.484;11.314;2022-08-01T05:27:32;2.00;;;1.80;;
60257;SDS011;46115;44.484;11.314;2022-08-01T05:31:39;1.80;;;1.60;;
60257;SDS011;46115;44.484;11.314;2022-08-01T05:35:43;3.10;;;2.10;;
60257;SDS011;46115;44.484;11.314;2022-08-01T05:39:45;2.00;;;1.70;;
60257;SDS011;46115;44.484;11.314;2022-08-01T05:43:47;3.42;;;1.85;;
60257;SDS011;46115;44.484;11.314;2022-08-01T05:47:50;3.65;;;1.80;;
60257;SDS011;46115;44.484;11.314;2022-08-01T05:51:54;3.55;;;1.77;;
60257;SDS011;46115;44.484;11.314;2022-08-01T05:56:00;2.58;;;1.55;;
60257;SDS011;46115;44.484;11.314;2022-08-01T06:00:03;3.28;;;1.88;;
60257;SDS011;46115;44.484;11.314;2022-08-01T06:04:12;4.10;;;1.73;;
60257;SDS011;46115;44.484;11.314;2022-08-01T06:08:16;2.67;;;1.83;;
60257;SDS011;46115;44.484;11.314;2022-08-01T06:12:19;2.42;;;1.70;;
60257;SDS011;46115;44.484;11.314;2022-08-01T06:16:21;2.72;;;1.60;;
60257;SDS011;46115;44.484;11.314;2022-08-01T06:20:24;2.17;;;1.63;;
60257;SDS011;46115;44.484;11.314;2022-08-01T06:24:28;4.50;;;1.90;;
60257;SDS011;46115;44.484;11.314;2022-08-01T06:28:30;4.57;;;1.65;;
60257;SDS011;46115;44.484;11.314;2022-08-01T06:32:33;2.00;;;1.58;;
60257;SDS011;46115;44.484;11.314;2022-08-01T06:36:35;2.03;;;1.58;;
60257;SDS011;46115;44.484;11.314;2022-08-01T06:40:39;2.88;;;1.52;;
60257;SDS011;46115;44.484;11.314;2022-08-01T06:44:42;3.25;;;1.48;;
60257;SDS011;46115;44.484;11.314;2022-08-01T06:48:45;2.47;;;1.60;;
60257;SDS011;46115;44.484;11.314;2022-08-01T06:52:47;3.72;;;1.63;;
60257;SDS011;46115;44.484;11.314;2022-08-01T06:56:51;2.97;;;1.50;;
60257;SDS011;46115;44.484;11.314;2022-08-01T07:00:53;3.47;;;1.40;;
60257;SDS011;46115;44.484;11.314;2022-08-01T07:04:56;3.05;;;1.50;;
60257;SDS011;46115;44.484;11.314;2022-08-01T07:09:01;2.40;;;1.35;;
60257;SDS011;46115;44.484;11.314;2022-08-01T07:13:05;4.70;;;1.38;;
60257;SDS011;46115;44.484;11.314;2022-08-01T07:17:08;3.55;;;1.25;;
60257;SDS011;46115;44.484;11.314;2022-08-01T07:21:10;3.80;;;1.13;;
60257;SDS011;46115;44.484;11.314;2022-08-01T07:25:13;2.65;;;1.35;;
60257;SDS011;46115;44.484;11.314;2022-08-01T07:29:17;2.00;;;1.20;;
60257;SDS011;46115;44.484;11.314;2022-08-01T07:33:20;1.80;;;1.20;;
60257;SDS011;46115;44.484;11.314;2022-08-01T07:37:23;3.42;;;1.30;;
60257;SDS011;46115;44.484;11.314;2022-08-01T07:41:25;2.88;;;1.40;;
60257;SDS011;46115;44.484;11.314;2022-08-01T07:45:30;2.85;;;1.60;;
60257;SDS011;46115;44.484;11.314;2022-08-01T07:49:32;2.35;;;1.50;;
60257;SDS011;46115;44.484;11.314;2022-08-01T07:53:35;2.10;;;1.60;;
60257;SDS011;46115;44.484;11.314;2022-08-01T07:57:38;3.67;;;1.65;;
60257;SDS011;46115;44.484;11.314;2022-08-01T08:01:42;4.80;;;1.70;;
60257;SDS011;46115;44.484;11.314;2022-08-01T08:05:45;3.00;;;1.80;;
60257;SDS011;46115;44.484;11.314;2022-08-01T08:09:47;3.97;;;2.10;;
60257;SDS011;46115;44.484;11.314;2022-08-01T08:13:50;3.83;;;1.95;;
60257;SDS011;46115;44.484;11.314;2022-08-01T08:17:54;4.72;;;2.00;;
60257;SDS011;46115;44.484;11.314;2022-08-01T08:21:57;2.78;;;2.10;;
60257;SDS011;46115;44.484;11.314;2022-08-01T08:25:59;4.15;;;2.50;;
60257;SDS011;46115;44.484;11.314;2022-08-01T08:30:02;3.97;;;2.80;;
60257;SDS011;46115;44.484;11.314;2022-08-01T08:34:08;4.35;;;2.58;;
60257;SDS011;46115;44.484;11.314;2022-08-01T08:38:11;4.05;;;3.00;;
60257;SDS011;46115;44.484;11.314;2022-08-01T08:42:13;4.70;;;3.20;;
60257;SDS011;46115;44.484;11.314;2022-08-01T08:46:16;4.85;;;3.15;;
60257;SDS011;46115;44.484;11.314;2022-08-01T08:50:22;3.58;;;3.28;;
60257;SDS011;46115;44.484;11.314;2022-08-01T08:54:25;6.30;;;2.63;;
60257;SDS011;46115;44.484;11.314;2022-08-01T08:58:29;5.57;;;2.50;;
60257;SDS011;46115;44.484;11.314;2022-08-01T09:02:40;3.45;;;3.15;;
60257;SDS011;46115;44.484;11.314;2022-08-01T09:06:45;3.38;;;2.92;;
60257;SDS011;46115;44.484;11.314;2022-08-01T09:10:47;2.97;;;2.50;;
60257;SDS011;46115;44.484;11.314;2022-08-01T09:14:50;5.70;;;2.60;;
60257;SDS011;46115;44.484;11.314;2022-08-01T09:18:54;3.42;;;2.70;;
60257;SDS011;46115;44.484;11.314;2022-08-01T09:23:14;3.20;;;2.60;;
60257;SDS011;46115;44.484;11.314;2022-08-01T09:27:33;3.08;;;1.80;;
60257;SDS011;46115;44.484;11.314;2022-08-01T09:31:41;4.05;;;1.50;;
60257;SDS011;46115;44.484;11.314;2022-08-01T09:35:44;3.70;;;1.50;;
60257;SDS011;46115;44.484;11.314;2022-08-01T09:39:58;2.72;;;1.70;;
60257;SDS011;46115;44.484;11.314;2022-08-01T09:44:00;5.70;;;1.60;;
60257;SDS011;46115;44.484;11.314;2022-08-01T09:48:05;3.97;;;1.90;;
60257;SDS011;46115;44.484;11.314;2022-08-01T09:52:13;4.00;;;1.70;;
60257;SDS011;46115;44.484;11.314;2022-08-01T09:56:17;3.20;;;1.90;;
60257;SDS011;46115;44.484;11.314;2022-08-01T10:00:21;4.57;;;2.10;;
60257;SDS011;46115;44.484;11.314;2022-08-01T10:04:24;2.85;;;1.80;;
60257;SDS011;46115;44.484;11.314;2022-08-01T10:08:28;4.47;;;2.15;;
60257;SDS011;46115;44.484;11.314;2022-08-01T10:12:49;4.63;;;2.90;;
60257;SDS011;46115;44.484;11.314;2022-08-01T10:16:55;7.60;;;2.97;;
60257;SDS011;46115;44.484;11.314;2022-08-01T10:20:59;5.53;;;3.42;;
60257;SDS011;46115;44.484;11.314;2022-08-01T10:25:03;6.10;;;3.17;;
60257;SDS011;46115;44.484;11.314;2022-08-01T10:29:08;4.90;;;3.10;;
60257;SDS011;46115;44.484;11.314;2022-08-01T10:33:11;6.65;;;2.95;;
60257;SDS011;46115;44.484;11.314;2022-08-01T10:37:14;7.13;;;3.42;;
60257;SDS011;46115;44.484;11.314;2022-08-01T10:41:17;8.20;;;3.53;;
60257;SDS011;46115;44.484;11.314;2022-08-01T10:45:22;7.45;;;3.20;;
60257;SDS011;46115;44.484;11.314;2022-08-01T10:49:27;5.00;;;3.50;;
60257;SDS011;46115;44.484;11.314;2022-08-01T10:53:32;4.75;;;3.22;;
60257;SDS011;46115;44.484;11.314;2022-08-01T10:57:41;6.70;;;3.60;;
60257;SDS011;46115;44.484;11.314;2022-08-01T11:01:46;7.13;;;3.30;;
60257;SDS011;46115;44.484;11.314;2022-08-01T11:05:59;4.18;;;2.95;;
60257;SDS011;46115;44.484;11.314;2022-08-01T11:10:02;4.10;;;2.83;;
60257;SDS011;46115;44.484;11.314;2022-08-01T11:14:10;6.15;;;2.83;;
60257;SDS011;46115;44.484;11.314;2022-08-01T11:27:18;3.10;;;2.33;;
60257;SDS011;46115;44.484;11.314;2022-08-01T11:31:25;3.30;;;2.58;;
60257;SDS011;46115;44.484;11.314;2022-08-01T11:35:31;6.13;;;2.40;;
60257;SDS011;46115;44.484;11.314;2022-08-01T11:39:34;3.85;;;2.08;;
60257;SDS011;46115;44.484;11.314;2022-08-01T11:43:41;3.92;;;1.85;;
60257;SDS011;46115;44.484;11.314;2022-08-01T11:47:56;3.20;;;1.80;;
60257;SDS011;46115;44.484;11.314;2022-08-01T11:52:02;11.13;;;2.30;;
60257;SDS011;46115;44.484;11.314;2022-08-01T11:56:06;3.78;;;1.92;;
60257;SDS011;46115;44.484;11.314;2022-08-01T12:00:10;2.17;;;1.80;;
60257;SDS011;46115;44.484;11.314;2022-08-01T12:04:14;6.97;;;2.33;;
60257;SDS011;46115;44.484;11.314;2022-08-01T12:08:25;3.50;;;1.80;;
60257;SDS011;46115;44.484;11.314;2022-08-01T12:12:28;3.08;;;1.83;;
60257;SDS011;46115;44.484;11.314;2022-08-01T12:16:32;3.63;;;1.75;;
60257;SDS011;46115;44.484;11.314;2022-08-01T12:20:35;4.47;;;1.90;;
60257;SDS011;46115;44.484;11.314;2022-08-01T12:24:41;3.30;;;1.80;;
60257;SDS011;46115;44.484;11.314;2022-08-01T12:28:44;6.47;;;1.52;;
60257;SDS011;46115;44.484;11.314;2022-08-01T12:32:46;4.50;;;1.80;;
60257;SDS011;46115;44.484;11.314;2022-08-01T12:36:49;3.13;;;1.80;;
60257;SDS011;46115;44.484;11.314;2022-08-01T12:40:53;3.78;;;1.50;;
60257;SDS011;46115;44.484;11.314;2022-08-01T12:44:57;3.13;;;1.80;;
60257;SDS011;46115;44.484;11.314;2022-08-01T12:49:00;4.82;;;1.60;;
60257;SDS011;46115;44.484;11.314;2022-08-01T12:53:02;9.13;;;1.70;;
60257;SDS011;46115;44.484;11.314;2022-08-01T12:57:09;2.90;;;1.65;;
60257;SDS011;46115;44.484;11.314;2022-08-01T13:01:25;3.17;;;1.70;;
60257;SDS011;46115;44.484;11.314;2022-08-01T13:05:39;3.25;;;1.50;;
60257;SDS011;46115;44.484;11.314;2022-08-01T13:09:48;3.22;;;1.38;;
60257;SDS011;46115;44.484;11.314;2022-08-01T13:13:53;2.70;;;1.45;;
60257;SDS011;46115;44.484;11.314;2022-08-01T13:17:58;3.15;;;1.25;;
60257;SDS011;46115;44.484;11.314;2022-08-01T13:22:01;3.30;;;1.40;;
60257;SDS011;46115;44.484;11.314;2022-08-01T13:26:04;3.33;;;1.45;;
60257;SDS011;46115;44.484;11.314;2022-08-01T13:30:11;4.72;;;1.63;;
60257;SDS011;46115;44.484;11.314;2022-08-01T13:34:15;3.15;;;1.67;;
60257;SDS011;46115;44.484;11.314;2022-08-01T13:38:18;4.60;;;1.50;;
60257;SDS011;46115;44.484;11.314;2022-08-01T13:42:41;3.60;;;1.55;;
60257;SDS011;46115;44.484;11.314;2022-08-01T13:46:45;4.45;;;1.60;;
60257;SDS011;46115;44.484;11.314;2022-08-01T13:50:48;6.70;;;1.42;;
60257;SDS011;46115;44.484;11.314;2022-08-01T13:54:51;4.38;;;1.50;;
60257;SDS011;46115;44.484;11.314;2022-08-01T13:58:53;2.85;;;1.30;;
60257;SDS011;46115;44.484;11.314;2022-08-01T14:02:57;3.17;;;1.30;;
60257;SDS011;46115;44.484;11.314;2022-08-01T14:07:00;3.05;;;1.30;;
60257;SDS011;46115;44.484;11.314;2022-08-01T14:11:02;2.40;;;1.30;;
60257;SDS011;46115;44.484;11.314;2022-08-01T14:15:06;2.00;;;1.20;;
60257;SDS011;46115;44.484;11.314;2022-08-01T14:19:10;3.30;;;1.30;;
60257;SDS011;46115;44.484;11.314;2022-08-01T14:23:13;3.13;;;1.20;;
60257;SDS011;46115;44.484;11.314;2022-08-01T14:27:15;2.13;;;1.20;;
60257;SDS011;46115;44.484;11.314;2022-08-01T14:31:18;3.35;;;1.30;;
60257;SDS011;46115;44.484;11.314;2022-08-01T14:35:22;1.75;;;1.10;;
60257;SDS011;46115;44.484;11.314;2022-08-01T14:39:24;1.88;;;1.20;;
60257;SDS011;46115;44.484;11.314;2022-08-01T14:43:27;3.28;;;1.20;;
60257;SDS011;46115;44.484;11.314;2022-08-01T14:47:29;3.85;;;1.30;;
60257;SDS011;46115;44.484;11.314;2022-08-01T14:51:33;5.93;;;1.30;;
60257;SDS011;46115;44.484;11.314;2022-08-01T14:55:38;4.00;;;1.42;;
60257;SDS011;46115;44.484;11.314;2022-08-01T14:59:41;2.17;;;1.10;;
60257;SDS011;46115;44.484;11.314;2022-08-01T15:03:43;3.15;;;1.10;;
60257;SDS011;46115;44.484;11.314;2022-08-01T15:07:48;2.38;;;1.05;;
60257;SDS011;46115;44.484;11.314;2022-08-01T15:11:50;3.45;;;1.08;;
60257;SDS011;46115;44.484;11.314;2022-08-01T15:15:53;2.67;;;1.20;;
60257;SDS011;46115;44.484;11.314;2022-08-01T15:19:56;3.50;;;1.30;;
60257;SDS011;46115;44.484;11.314;2022-08-01T15:24:00;1.55;;;1.15;;
60257;SDS011;46115;44.484;11.314;2022-08-01T15:28:03;3.03;;;1.00;;
60257;SDS011;46115;44.484;11.314;2022-08-01T15:32:06;2.95;;;1.10;;
60257;SDS011;46115;44.484;11.314;2022-08-01T15:36:09;5.93;;;1.00;;
60257;SDS011;46115;44.484;11.314;2022-08-01T15:40:13;5.60;;;1.17;;
60257;SDS011;46115;44.484;11.314;2022-08-01T15:44:15;4.85;;;1.10;;
60257;SDS011;46115;44.484;11.314;2022-08-01T15:48:20;5.90;;;1.02;;
60257;SDS011;46115;44.484;11.314;2022-08-01T15:52:23;2.38;;;1.02;;
60257;SDS011;46115;44.484;11.314;2022-08-01T15:56:27;2.13;;;1.05;;
60257;SDS011;46115;44.484;11.314;2022-08-01T16:00:29;2.10;;;1.00;;
60257;SDS011;46115;44.484;11.314;2022-08-01T16:04:32;2.35;;;0.90;;
60257;SDS011;46115;44.484;11.314;2022-08-01T16:08:34;3.70;;;1.10;;
60257;SDS011;46115;44.484;11.314;2022-08-01T16:12:38;4.25;;;1.35;;
60257;SDS011;46115;44.484;11.314;2022-08-01T16:16:41;6.32;;;1.52;;
60257;SDS011;46115;44.484;11.314;2022-08-01T16:20:43;3.40;;;1.38;;
60257;SDS011;46115;44.484;11.314;2022-08-01T16:24:46;7.82;;;1.70;;
60257;SDS011;46115;44.484;11.314;2022-08-01T16:28:49;10.43;;;1.60;;
60257;SDS011;46115;44.484;11.314;2022-08-01T16:32:52;12.00;;;1.42;;
60257;SDS011;46115;44.484;11.314;2022-08-01T16:36:55;5.88;;;1.40;;
60257;SDS011;46115;44.484;11.314;2022-08-01T16:40:57;3.97;;;1.45;;
60257;SDS011;46115;44.484;11.314;2022-08-01T16:45:01;4.13;;;1.50;;
60257;SDS011;46115;44.484;11.314;2022-08-01T16:49:04;8.20;;;1.40;;
60257;SDS011;46115;44.484;11.314;2022-08-01T16:53:07;3.78;;;1.35;;
60257;SDS011;46115;44.484;11.314;2022-08-01T16:57:10;2.08;;;1.30;;
60257;SDS011;46115;44.484;11.314;2022-08-01T17:01:14;5.70;;;1.27;;
60257;SDS011;46115;44.484;11.314;2022-08-01T17:05:18;7.82;;;1.60;;
60257;SDS011;46115;44.484;11.314;2022-08-01T17:09:21;4.28;;;1.50;;
60257;SDS011;46115;44.484;11.314;2022-08-01T17:13:23;4.85;;;1.35;;
60257;SDS011;46115;44.484;11.314;2022-08-01T17:17:27;7.53;;;1.40;;
60257;SDS011;46115;44.484;11.314;2022-08-01T17:21:29;3.28;;;1.33;;
60257;SDS011;46115;44.484;11.314;2022-08-01T17:25:33;3.85;;;1.35;;
60257;SDS011;46115;44.484;11.314;2022-08-01T17:29:36;1.58;;;1.10;;
60257;SDS011;46115;44.484;11.314;2022-08-01T17:33:41;4.13;;;1.33;;
60257;SDS011;46115;44.484;11.314;2022-08-01T17:37:43;3.78;;;1.35;;
60257;SDS011;46115;44.484;11.314;2022-08-01T17:41:46;7.38;;;1.20;;
60257;SDS011;46115;44.484;11.314;2022-08-01T17:45:48;5.90;;;1.40;;
60257;SDS011;46115;44.484;11.314;2022-08-01T17:49:54;4.70;;;1.40;;
60257;SDS011;46115;44.484;11.314;2022-08-01T17:53:56;4.68;;;1.40;;
60257;SDS011;46115;44.484;11.314;2022-08-01T17:57:59;7.03;;;1.50;;
60257;SDS011;46115;44.484;11.314;2022-08-01T18:02:04;5.22;;;2.20;;
60257;SDS011;46115;44.484;11.314;2022-08-01T18:06:09;6.50;;;1.42;;
60257;SDS011;46115;44.484;11.314;2022-08-01T18:10:13;6.63;;;1.42;;
60257;SDS011;46115;44.484;11.314;2022-08-01T18:14:15;6.00;;;1.67;;
60257;SDS011;46115;44.484;11.314;2022-08-01T18:18:18;5.03;;;1.50;;
60257;SDS011;46115;44.484;11.314;2022-08-01T18:22:22;3.97;;;1.30;;
60257;SDS011;46115;44.484;11.314;2022-08-01T18:26:24;5.03;;;1.20;;
60257;SDS011;46115;44.484;11.314;2022-08-01T18:30:27;3.05;;;1.50;;
60257;SDS011;46115;44.484;11.314;2022-08-01T18:34:29;2.90;;;1.40;;
60257;SDS011;46115;44.484;11.314;2022-08-01T18:38:33;3.50;;;1.60;;
60257;SDS011;46115;44.484;11.314;2022-08-01T18:42:36;4.13;;;1.17;;
60257;SDS011;46115;44.484;11.314;2022-08-01T18:46:38;2.65;;;1.60;;
60257;SDS011;46115;44.484;11.314;2022-08-01T18:50:41;3.90;;;1.50;;
60257;SDS011;46115;44.484;11.314;2022-08-01T18:54:45;3.30;;;1.52;;
60257;SDS011;46115;44.484;11.314;2022-08-01T18:58:47;4.75;;;1.60;;
60257;SDS011;46115;44.484;11.314;2022-08-01T19:02:50;4.55;;;1.50;;
60257;SDS011;46115;44.484;11.314;2022-08-01T19:06:52;4.40;;;1.60;;
60257;SDS011;46115;44.484;11.314;2022-08-01T19:10:56;4.18;;;1.50;;
60257;SDS011;46115;44.484;11.314;2022-08-01T19:14:59;3.15;;;1.50;;
60257;SDS011;46115;44.484;11.314;2022-08-01T19:19:02;5.13;;;1.38;;
60257;SDS011;46115;44.484;11.314;2022-08-01T19:23:06;4.65;;;1.52;;
60257;SDS011;46115;44.484;11.314;2022-08-01T19:27:24;3.70;;;1.33;;
60257;SDS011;46115;44.484;11.314;2022-08-01T22:06:07;6.07;;;1.80;;
60257;SDS011;46115;44.484;11.314;2022-08-01T22:10:13;5.03;;;1.70;;
60257;SDS011;46115;44.484;11.314;2022-08-01T22:14:17;3.67;;;1.80;;
60257;SDS011;46115;44.484;11.314;2022-08-01T22:18:22;6.90;;;1.77;;
60257;SDS011;46115;44.484;11.314;2022-08-01T22:22:28;5.18;;;1.70;;
60257;SDS011;46115;44.484;11.314;2022-08-01T22:26:31;2.80;;;1.70;;
60257;SDS011;46115;44.484;11.314;2022-08-01T22:30:39;4.80;;;1.73;;
60257;SDS011;46115;44.484;11.314;2022-08-01T22:34:42;3.00;;;1.80;;
60257;SDS011;46115;44.484;11.314;2022-08-01T22:38:46;5.72;;;1.90;;
60257;SDS011;46115;44.484;11.314;2022-08-01T22:42:49;5.22;;;1.90;;
60257;SDS011;46115;44.484;11.314;2022-08-01T22:46:59;3.83;;;1.80;;
60257;SDS011;46115;44.484;11.314;2022-08-01T22:51:05;4.80;;;1.75;;
60257;SDS011;46115;44.484;11.314;2022-08-01T22:55:15;3.97;;;1.70;;
60257;SDS011;46115;44.484;11.314;2022-08-01T22:59:22;2.95;;;1.55;;
60257;SDS011;46115;44.484;11.314;2022-08-01T23:03:31;3.47;;;1.77;;
60257;SDS011;46115;44.484;11.314;2022-08-01T23:07:37;7.95;;;1.88;;
60257;SDS011;46115;44.484;11.314;2022-08-01T23:11:42;4.25;;;1.80;;
60257;SDS011;46115;44.484;11.314;2022-08-01T23:15:46;3.78;;;1.80;;
60257;SDS011;46115;44.484;11.314;2022-08-01T23:19:49;2.40;;;1.80;;
60257;SDS011;46115;44.484;11.314;2022-08-01T23:23:52;6.68;;;2.10;;
60257;SDS011;46115;44.484;11.314;2022-08-01T23:27:57;3.33;;;2.00;;
60257;SDS011;46115;44.484;11.314;2022-08-01T23:32:00;3.47;;;2.00;;
60257;SDS011;46115;44.484;11.314;2022-08-01T23:36:03;4.82;;;1.90;;
60257;SDS011;46115;44.484;11.314;2022-08-01T23:40:07;4.63;;;1.95;;
60257;SDS011;46115;44.484;11.314;2022-08-01T23:44:11;2.83;;;1.90;;
60257;SDS011;46115;44.484;11.314;2022-08-01T23:48:14;2.85;;;1.60;;
60257;SDS011;46115;44.484;11.314;2022-08-01T23:52:17;2.63;;;1.90;;
60257;SDS011;46115;44.484;11.314;2022-08-01T23:56:19;2.90;;;1.70;;
